Time;durP1;ratioP1;P1;durP2;ratioP2;P2;SDS_P1;SDS_P2;PMS_P1;PMS_P2;Temp;Humidity;BMP_temperature;BMP_pressure;BME280_temperature;BME280_humidity;BME280_pressure;Samples;Min_cycle;Max_cycle;Signal;HPM_P1;HPM_P2
2023/04/09 00:00:38;;;;;;;25.27;14.20;;;9.00;99.90;;;;;;6198802;23;20230;-85
2023/04/09 00:03:04;;;;;;;19.47;11.10;;;9.00;99.90;;;;;;6173704;23;20191;-83
2023/04/09 00:05:30;;;;;;;23.77;12.17;;;9.00;99.90;;;;;;6174865;23;20749;-83
2023/04/09 00:07:56;;;;;;;17.73;10.43;;;9.00;99.90;;;;;;6175658;23;20178;-83
2023/04/09 00:10:21;;;;;;;27.10;15.03;;;9.00;99.90;;;;;;6173283;23;20187;-86
2023/04/09 00:12:47;;;;;;;18.50;13.07;;;9.00;99.90;;;;;;6197712;23;20199;-84
2023/04/09 00:15:13;;;;;;;22.77;12.93;;;9.00;99.90;;;;;;6173356;23;20187;-85
2023/04/09 00:17:39;;;;;;;18.60;12.73;;;9.00;99.90;;;;;;6174786;23;20868;-83
2023/04/09 00:20:06;;;;;;;20.83;13.00;;;9.00;99.90;;;;;;6173719;23;20178;-83
2023/04/09 00:22:32;;;;;;;17.53;12.10;;;9.00;99.90;;;;;;6173628;23;20256;-83
2023/04/09 00:24:58;;;;;;;21.73;14.00;;;9.10;99.90;;;;;;6173422;23;20281;-86
2023/04/09 00:27:24;;;;;;;23.00;14.47;;;9.10;99.90;;;;;;6174651;23;20618;-88
2023/04/09 00:29:53;;;;;;;26.97;15.50;;;9.10;99.90;;;;;;6172723;23;20190;-83
2023/04/09 00:32:19;;;;;;;17.80;13.13;;;9.00;99.90;;;;;;6198380;23;20221;-84
2023/04/09 00:34:45;;;;;;;18.17;13.17;;;9.10;99.90;;;;;;6175071;23;20594;-82
2023/04/09 00:37:11;;;;;;;31.33;15.53;;;9.10;99.90;;;;;;6173293;23;20253;-85
2023/04/09 00:39:36;;;;;;;16.87;14.07;;;9.10;99.90;;;;;;6174240;23;20277;-88
2023/04/09 00:42:02;;;;;;;20.70;13.80;;;9.10;99.90;;;;;;6173111;23;20190;-82
2023/04/09 00:44:28;;;;;;;25.97;15.00;;;9.10;99.90;;;;;;6197546;23;20589;-82
2023/04/09 00:46:54;;;;;;;23.10;12.13;;;9.10;99.90;;;;;;6175566;23;20186;-86
2023/04/09 00:49:20;;;;;;;21.80;12.93;;;9.10;99.90;;;;;;6173016;23;20233;-83
2023/04/09 00:51:47;;;;;;;23.83;14.83;;;9.10;99.90;;;;;;6172623;23;20277;-85
2023/04/09 00:54:13;;;;;;;18.13;13.50;;;9.10;99.90;;;;;;6198707;23;20198;-84
2023/04/09 00:56:40;;;;;;;17.47;13.73;;;9.00;99.90;;;;;;6197290;23;20186;-86
2023/04/09 00:59:06;;;;;;;20.00;13.53;;;9.10;99.90;;;;;;6173487;23;20193;-86
2023/04/09 01:01:32;;;;;;;26.97;14.43;;;9.10;99.90;;;;;;6173190;23;20214;-83
2023/04/09 01:03:57;;;;;;;22.07;12.67;;;9.00;99.90;;;;;;6173026;23;20201;-84
2023/04/09 01:06:58;;;;;;;23.60;10.90;;;9.00;99.90;;;;;;6174856;23;20461;-88
2023/04/09 01:09:29;;;;;;;25.07;14.73;;;9.00;99.90;;;;;;6171228;23;20190;-83
2023/04/09 01:12:24;;;;;;;24.47;13.13;;;9.00;99.90;;;;;;6197970;23;20191;-84
2023/04/09 01:15:05;;;;;;;18.80;10.80;;;9.00;99.90;;;;;;6174323;23;20190;-87
2023/04/09 01:17:40;;;;;;;20.07;13.00;;;9.00;99.90;;;;;;6174934;23;20174;-83
2023/04/09 01:20:34;;;;;;;17.83;13.80;;;9.00;99.90;;;;;;6175439;23;20157;-83
2023/04/09 01:23:18;;;;;;;16.67;11.50;;;9.00;99.90;;;;;;6170891;23;20214;-84
2023/04/09 01:26:03;;;;;;;24.37;14.67;;;9.00;99.90;;;;;;6204345;23;20233;-88
2023/04/09 01:28:58;;;;;;;19.13;11.83;;;9.10;99.90;;;;;;6177870;23;20614;-83
2023/04/09 01:31:30;;;;;;;20.57;13.00;;;9.00;99.90;;;;;;6184967;23;20202;-84
2023/04/09 01:33:57;;;;;;;20.60;13.50;;;9.00;99.90;;;;;;6228475;23;20190;-82
2023/04/09 01:36:26;;;;;;;18.20;10.80;;;9.00;99.90;;;;;;6203927;23;20213;-84
2023/04/09 01:38:52;;;;;;;22.30;13.93;;;9.00;99.90;;;;;;6203829;23;20288;-87
2023/04/09 01:41:20;;;;;;;21.97;13.70;;;9.00;99.90;;;;;;6203623;23;20261;-86
2023/04/09 01:43:49;;;;;;;16.33;12.77;;;9.00;99.90;;;;;;6204545;23;20186;-84
2023/04/09 01:46:17;;;;;;;24.00;12.70;;;9.00;99.90;;;;;;6204149;23;20186;-83
2023/04/09 01:48:43;;;;;;;20.83;11.50;;;9.00;99.90;;;;;;6228211;23;20272;-84
2023/04/09 01:51:09;;;;;;;22.17;13.80;;;8.90;99.90;;;;;;6201992;23;20190;-85
2023/04/09 01:53:38;;;;;;;16.13;10.23;;;8.90;99.90;;;;;;6204216;23;20593;-85
2023/04/09 01:56:04;;;;;;;23.77;12.33;;;8.90;99.90;;;;;;6205366;23;20155;-84
2023/04/09 01:58:32;;;;;;;19.20;10.00;;;8.90;99.90;;;;;;6205052;23;20536;-86
2023/04/09 02:01:20;;;;;;;24.73;12.00;;;8.90;99.90;;;;;;6204061;23;20445;-84
2023/04/09 02:03:52;;;;;;;13.80;8.20;;;8.90;99.90;;;;;;6227546;23;20540;-88
2023/04/09 02:06:38;;;;;;;19.70;10.80;;;8.90;99.90;;;;;;6203940;23;20633;-84
2023/04/09 02:09:07;;;;;;;17.20;10.30;;;8.90;99.90;;;;;;6204120;23;20197;-84
2023/04/09 02:11:37;;;;;;;20.90;13.80;;;8.90;99.90;;;;;;6203958;23;20165;-89
2023/04/09 02:14:03;;;;;;;21.30;13.43;;;8.80;99.90;;;;;;6204340;23;20907;-84
2023/04/09 02:16:31;;;;;;;23.30;14.17;;;8.80;99.90;;;;;;6203452;23;20210;-83
2023/04/09 02:18:59;;;;;;;15.60;10.07;;;8.80;99.90;;;;;;6227743;23;20186;-84
2023/04/09 02:21:27;;;;;;;16.77;10.63;;;8.80;99.90;;;;;;6202668;23;20197;-87
2023/04/09 02:23:54;;;;;;;20.20;13.10;;;8.80;99.90;;;;;;6201870;23;20228;-84
2023/04/09 02:26:21;;;;;;;26.43;10.33;;;8.80;99.90;;;;;;6202866;23;20196;-84
2023/04/09 02:28:47;;;;;;;19.00;12.27;;;8.70;99.90;;;;;;6204520;23;20493;-83
2023/04/09 02:31:12;;;;;;;24.03;12.97;;;8.70;99.90;;;;;;6204127;23;20535;-84
2023/04/09 02:33:38;;;;;;;13.70;10.63;;;8.70;99.90;;;;;;6204099;23;20614;-84
2023/04/09 02:36:05;;;;;;;24.73;11.33;;;8.70;99.90;;;;;;6202619;23;20724;-84
2023/04/09 02:38:31;;;;;;;17.23;13.90;;;8.70;99.90;;;;;;6204180;23;20166;-84
2023/04/09 02:40:56;;;;;;;14.17;9.60;;;8.70;99.90;;;;;;6178504;23;20633;-83
2023/04/09 02:43:22;;;;;;;17.67;10.13;;;8.70;99.90;;;;;;6204321;23;20194;-83
2023/04/09 02:45:48;;;;;;;21.97;12.00;;;8.70;99.90;;;;;;6204322;23;20524;-88
2023/04/09 02:48:14;;;;;;;19.10;10.50;;;8.60;99.90;;;;;;6177340;23;20265;-87
2023/04/09 02:50:39;;;;;;;18.63;11.03;;;8.60;99.90;;;;;;6204417;23;20348;-85
2023/04/09 02:53:05;;;;;;;22.43;11.77;;;8.60;99.90;;;;;;6203077;23;20693;-83
2023/04/09 02:55:31;;;;;;;15.10;9.57;;;8.60;99.90;;;;;;6202210;23;20259;-84
2023/04/09 02:57:57;;;;;;;19.00;12.40;;;8.60;99.90;;;;;;6203705;23;20498;-84
2023/04/09 03:00:22;;;;;;;18.40;12.00;;;8.60;99.90;;;;;;6203794;23;20186;-84
2023/04/09 03:02:48;;;;;;;15.87;11.33;;;8.60;99.90;;;;;;6202871;23;20186;-90
2023/04/09 03:05:14;;;;;;;11.13;9.10;;;8.60;99.90;;;;;;6205410;23;20159;-84
2023/04/09 03:07:39;;;;;;;19.50;12.07;;;8.60;99.90;;;;;;6204275;23;20197;-86
2023/04/09 03:10:05;;;;;;;20.63;9.50;;;8.60;99.90;;;;;;6205662;23;20220;-83
2023/04/09 03:12:31;;;;;;;24.83;11.90;;;8.50;99.90;;;;;;6205908;23;20190;-86
2023/04/09 03:14:57;;;;;;;16.63;9.20;;;8.50;99.90;;;;;;6203989;23;20517;-84
2023/04/09 03:17:25;;;;;;;18.63;9.97;;;8.50;99.90;;;;;;6203999;23;20189;-84
2023/04/09 03:19:52;;;;;;;14.40;9.50;;;8.50;99.90;;;;;;6204643;23;20161;-83
2023/04/09 03:22:17;;;;;;;13.33;8.90;;;8.50;99.90;;;;;;6203994;23;20217;-87
2023/04/09 03:24:43;;;;;;;16.77;11.63;;;8.50;99.90;;;;;;6204607;23;20190;-83
2023/04/09 03:27:09;;;;;;;13.57;9.37;;;8.40;99.90;;;;;;6203446;23;20423;-83
2023/04/09 03:29:35;;;;;;;22.93;11.67;;;8.40;99.90;;;;;;6180034;23;20180;-84
2023/04/09 03:32:00;;;;;;;11.27;10.03;;;8.40;99.90;;;;;;6155042;23;20217;-84
2023/04/09 03:34:26;;;;;;;21.50;11.10;;;8.40;99.90;;;;;;6203564;23;20259;-90
2023/04/09 03:36:52;;;;;;;22.83;10.97;;;8.40;99.90;;;;;;6205331;23;20217;-85
2023/04/09 03:39:18;;;;;;;15.73;10.40;;;8.40;99.90;;;;;;6203881;23;20244;-87
2023/04/09 03:41:43;;;;;;;15.50;9.10;;;8.40;99.90;;;;;;6229041;23;20214;-83
2023/04/09 03:44:09;;;;;;;21.97;10.13;;;8.30;99.90;;;;;;6229880;23;20598;-87
2023/04/09 03:46:35;;;;;;;12.70;8.57;;;8.40;99.90;;;;;;6205995;23;20244;-83
2023/04/09 03:49:01;;;;;;;15.47;7.97;;;8.30;99.90;;;;;;6204945;23;20217;-84
2023/04/09 03:51:27;;;;;;;12.67;8.03;;;8.30;99.90;;;;;;6205559;23;20841;-83
2023/04/09 03:53:52;;;;;;;24.20;10.67;;;8.30;99.90;;;;;;6205705;23;20196;-83
2023/04/09 03:56:18;;;;;;;15.90;9.67;;;8.30;99.90;;;;;;6206141;23;20158;-82
2023/04/09 03:58:44;;;;;;;26.60;13.97;;;8.30;99.90;;;;;;6179546;23;20725;-87
2023/04/09 04:01:09;;;;;;;16.13;10.93;;;8.30;99.90;;;;;;6205327;23;20621;-87
2023/04/09 04:03:35;;;;;;;20.40;11.70;;;8.20;99.90;;;;;;6205746;23;20198;-87
2023/04/09 04:06:02;;;;;;;20.20;12.40;;;8.20;99.90;;;;;;6203927;23;20545;-84
2023/04/09 04:08:28;;;;;;;14.00;10.13;;;8.20;99.90;;;;;;6228811;23;20476;-83
2023/04/09 04:10:54;;;;;;;19.40;8.17;;;8.30;99.90;;;;;;6204074;23;20158;-84
2023/04/09 04:13:20;;;;;;;22.53;11.47;;;8.30;99.90;;;;;;6228874;23;20272;-84
2023/04/09 04:15:46;;;;;;;13.40;9.67;;;8.30;99.90;;;;;;6205609;23;20621;-86
2023/04/09 04:18:12;;;;;;;20.47;10.20;;;8.30;99.90;;;;;;6203807;23;20194;-85
2023/04/09 04:20:39;;;;;;;18.20;11.67;;;8.30;99.90;;;;;;6204701;23;20165;-86
2023/04/09 04:23:05;;;;;;;19.90;10.43;;;8.30;99.90;;;;;;6205581;23;20190;-84
2023/04/09 04:25:31;;;;;;;22.13;11.87;;;8.20;99.90;;;;;;6179229;23;20513;-84
2023/04/09 04:27:57;;;;;;;23.47;13.90;;;8.30;99.90;;;;;;6177891;23;20198;-88
2023/04/09 04:30:22;;;;;;;16.97;8.80;;;8.20;99.90;;;;;;6204186;23;20194;-84
2023/04/09 04:32:49;;;;;;;19.53;9.63;;;8.20;99.90;;;;;;6205095;23;20182;-84
2023/04/09 04:35:14;;;;;;;17.87;8.77;;;8.20;99.90;;;;;;6229457;23;20224;-86
2023/04/09 04:37:41;;;;;;;17.03;8.90;;;8.20;99.90;;;;;;6204764;23;20205;-87
2023/04/09 04:40:08;;;;;;;12.73;7.17;;;8.20;99.90;;;;;;6203336;23;20186;-87
2023/04/09 04:42:34;;;;;;;16.73;9.07;;;8.20;99.90;;;;;;6203102;23;20220;-89
2023/04/09 04:45:00;;;;;;;13.07;7.17;;;8.20;99.90;;;;;;6203392;23;20181;-87
2023/04/09 04:47:26;;;;;;;15.13;7.33;;;8.20;99.90;;;;;;6203330;23;20249;-85
2023/04/09 04:49:51;;;;;;;11.03;7.13;;;8.20;99.90;;;;;;6204791;23;20613;-84
2023/04/09 04:52:17;;;;;;;11.87;9.93;;;8.20;99.90;;;;;;6204739;23;20190;-84
2023/04/09 04:54:43;;;;;;;9.93;7.67;;;8.20;99.90;;;;;;6203597;23;20205;-88
2023/04/09 04:57:09;;;;;;;17.10;8.03;;;8.20;99.90;;;;;;6203104;23;20201;-83
2023/04/09 04:59:38;;;;;;;13.13;8.60;;;8.20;99.90;;;;;;6204197;23;20158;-84
2023/04/09 05:02:05;;;;;;;10.47;8.80;;;8.20;99.90;;;;;;6204764;23;20157;-86
2023/04/09 05:04:31;;;;;;;16.73;8.73;;;8.20;99.90;;;;;;6202857;23;20197;-85
2023/04/09 05:06:57;;;;;;;18.00;8.33;;;8.20;99.90;;;;;;6202592;23;20269;-83
2023/04/09 05:09:22;;;;;;;13.63;8.27;;;8.20;99.90;;;;;;6202316;23;20862;-83
2023/04/09 05:11:48;;;;;;;11.53;9.13;;;8.20;99.90;;;;;;6203757;23;20235;-84
2023/04/09 05:14:14;;;;;;;14.00;7.37;;;8.20;99.90;;;;;;6204024;23;20518;-85
2023/04/09 05:16:40;;;;;;;9.90;6.00;;;8.20;99.90;;;;;;6201698;23;20235;-83
2023/04/09 05:19:06;;;;;;;14.73;7.53;;;8.20;99.90;;;;;;6202405;23;20193;-85
2023/04/09 05:21:31;;;;;;;17.17;6.43;;;8.20;99.90;;;;;;6203553;23;20190;-85
2023/04/09 05:23:57;;;;;;;17.13;9.37;;;8.20;99.90;;;;;;6204408;23;20217;-83
2023/04/09 05:26:23;;;;;;;10.90;5.73;;;8.20;99.90;;;;;;6202371;23;20478;-84
2023/04/09 05:28:49;;;;;;;8.93;5.47;;;8.20;99.90;;;;;;6205106;23;20164;-83
2023/04/09 05:31:15;;;;;;;12.67;7.60;;;8.20;99.90;;;;;;6204182;23;20197;-83
2023/04/09 05:33:41;;;;;;;17.73;8.33;;;8.20;99.90;;;;;;6202575;23;20196;-85
2023/04/09 05:36:07;;;;;;;9.37;7.43;;;8.30;99.90;;;;;;6202409;23;20239;-83
2023/04/09 05:38:33;;;;;;;9.67;6.73;;;8.30;99.90;;;;;;6228076;23;20485;-83
2023/04/09 05:40:59;;;;;;;12.50;6.90;;;8.30;99.90;;;;;;6204986;23;20189;-87
2023/04/09 05:43:25;;;;;;;6.33;5.27;;;8.30;99.90;;;;;;6227732;23;20193;-84
2023/04/09 05:45:51;;;;;;;12.43;7.47;;;8.40;99.90;;;;;;6202267;23;20268;-83
2023/04/09 05:48:18;;;;;;;12.80;8.07;;;8.30;99.90;;;;;;6204457;23;20312;-83
2023/04/09 05:50:51;;;;;;;9.60;7.07;;;8.40;99.90;;;;;;6202861;23;20200;-84
2023/04/09 05:53:18;;;;;;;14.63;7.80;;;8.30;99.90;;;;;;6228236;23;20180;-84
2023/04/09 05:55:44;;;;;;;9.03;6.20;;;8.30;99.90;;;;;;6197883;23;20191;-83
2023/04/09 05:58:11;;;;;;;12.17;10.03;;;8.40;99.90;;;;;;6197102;23;20218;-83
2023/04/09 06:00:36;;;;;;;19.57;10.23;;;8.40;99.90;;;;;;6173945;23;20200;-83
2023/04/09 06:03:03;;;;;;;17.50;7.60;;;8.40;99.90;;;;;;6174111;23;20186;-83
2023/04/09 06:05:29;;;;;;;16.00;7.00;;;8.40;99.90;;;;;;6172166;23;20151;-83
2023/04/09 06:07:55;;;;;;;18.40;6.00;;;8.30;99.90;;;;;;6173136;23;20170;-86
2023/04/09 06:10:21;;;;;;;17.13;9.53;;;8.30;99.90;;;;;;6173888;23;20194;-82
2023/04/09 06:12:46;;;;;;;12.90;7.30;;;8.30;99.90;;;;;;6172512;23;20205;-86
2023/04/09 06:15:12;;;;;;;19.57;7.20;;;8.30;99.90;;;;;;6174092;23;20565;-83
2023/04/09 06:17:38;;;;;;;12.80;5.30;;;8.30;99.90;;;;;;6172696;23;20213;-82
2023/04/09 06:20:05;;;;;;;13.00;7.17;;;8.30;99.90;;;;;;6198451;23;20563;-84
2023/04/09 06:22:31;;;;;;;16.23;8.67;;;8.30;99.90;;;;;;6173601;23;20215;-84
2023/04/09 06:24:57;;;;;;;19.87;9.27;;;8.30;99.90;;;;;;6171947;23;20460;-83
2023/04/09 06:27:22;;;;;;;13.77;6.17;;;8.30;99.90;;;;;;6174605;23;20195;-83
2023/04/09 06:29:48;;;;;;;12.00;8.27;;;8.40;99.90;;;;;;6148475;23;20515;-84
2023/04/09 06:32:14;;;;;;;11.57;7.27;;;8.40;99.90;;;;;;6172883;23;20478;-82
2023/04/09 06:34:39;;;;;;;10.03;7.40;;;8.40;99.90;;;;;;6201145;23;20273;-86
2023/04/09 06:37:05;;;;;;;14.97;7.13;;;8.40;99.90;;;;;;6180952;23;20205;-86
2023/04/09 06:39:32;;;;;;;12.03;5.77;;;8.40;99.90;;;;;;6173964;23;20278;-83
2023/04/09 06:41:57;;;;;;;13.03;8.07;;;8.40;99.90;;;;;;6176308;23;20190;-83
2023/04/09 06:44:23;;;;;;;8.53;7.00;;;8.50;99.90;;;;;;6176042;23;20579;-86
2023/04/09 06:46:50;;;;;;;15.87;6.83;;;8.50;99.90;;;;;;6174720;23;20482;-87
2023/04/09 06:49:15;;;;;;;10.00;7.07;;;8.50;99.90;;;;;;6175447;23;20418;-86
2023/04/09 06:51:41;;;;;;;8.57;6.73;;;8.50;99.90;;;;;;6175659;23;20514;-83
2023/04/09 06:54:07;;;;;;;8.77;6.43;;;8.60;99.90;;;;;;6174566;23;20233;-84
2023/04/09 06:56:33;;;;;;;7.77;5.07;;;8.60;99.90;;;;;;6149149;23;20244;-87
2023/04/09 06:58:59;;;;;;;13.73;8.50;;;8.60;99.90;;;;;;6175803;23;20163;-85
2023/04/09 07:01:25;;;;;;;7.20;5.77;;;8.60;99.90;;;;;;6175714;23;20201;-84
2023/04/09 07:03:51;;;;;;;14.23;6.77;;;8.60;99.90;;;;;;6173546;23;20660;-84
2023/04/09 07:06:17;;;;;;;8.77;6.90;;;8.70;99.90;;;;;;6174081;23;20190;-85
2023/04/09 07:08:43;;;;;;;10.23;7.23;;;8.70;99.90;;;;;;6173744;23;20186;-83
2023/04/09 07:11:08;;;;;;;7.77;5.87;;;8.80;99.90;;;;;;6175888;23;20159;-85
2023/04/09 07:13:34;;;;;;;10.10;5.30;;;8.80;99.90;;;;;;6171798;23;20197;-82
2023/04/09 07:16:00;;;;;;;14.23;7.80;;;8.70;99.90;;;;;;6149241;23;20217;-86
2023/04/09 07:18:26;;;;;;;10.80;4.73;;;8.70;99.90;;;;;;6199077;23;20626;-84
2023/04/09 07:20:52;;;;;;;9.67;8.07;;;8.80;99.90;;;;;;6174012;23;20190;-84
2023/04/09 07:23:18;;;;;;;10.93;7.60;;;8.80;99.90;;;;;;6174103;23;20730;-86
2023/04/09 07:25:44;;;;;;;12.13;8.70;;;8.80;99.90;;;;;;6198820;23;20202;-84
2023/04/09 07:28:10;;;;;;;14.93;6.03;;;8.80;99.90;;;;;;6197172;23;20543;-87
2023/04/09 07:30:36;;;;;;;11.43;8.40;;;8.70;99.90;;;;;;6228169;23;20201;-88
2023/04/09 07:33:02;;;;;;;10.03;5.27;;;8.70;99.90;;;;;;6203729;23;20409;-85
2023/04/09 07:35:28;;;;;;;13.40;7.73;;;8.80;99.90;;;;;;6228537;23;20450;-83
2023/04/09 07:37:53;;;;;;;8.47;4.77;;;8.70;99.90;;;;;;6203938;23;20300;-84
2023/04/09 07:40:19;;;;;;;10.77;5.73;;;8.70;99.90;;;;;;6204680;23;20450;-83
2023/04/09 07:42:45;;;;;;;6.63;5.67;;;8.70;99.90;;;;;;6205642;23;20198;-85
2023/04/09 07:45:11;;;;;;;8.90;6.37;;;8.70;99.90;;;;;;6203233;23;20194;-84
2023/04/09 07:47:39;;;;;;;9.57;5.70;;;8.70;99.90;;;;;;6178658;23;20162;-84
2023/04/09 07:50:06;;;;;;;13.40;7.90;;;8.70;99.90;;;;;;6228846;23;20154;-84
2023/04/09 07:52:31;;;;;;;11.50;8.57;;;8.80;99.90;;;;;;6204895;23;20197;-84
2023/04/09 07:54:57;;;;;;;12.90;8.23;;;8.80;99.90;;;;;;6203454;23;20190;-83
2023/04/09 07:57:23;;;;;;;12.93;7.87;;;8.80;99.90;;;;;;6204787;23;20206;-84
2023/04/09 07:59:49;;;;;;;12.50;7.90;;;8.70;99.90;;;;;;6203427;23;20209;-83
2023/04/09 08:02:15;;;;;;;11.13;8.87;;;8.70;99.90;;;;;;6204156;23;20253;-86
2023/04/09 08:04:41;;;;;;;10.57;8.03;;;8.80;99.90;;;;;;6203586;23;20232;-85
2023/04/09 08:07:07;;;;;;;8.10;7.00;;;8.80;99.90;;;;;;6203079;23;20406;-87
2023/04/09 08:09:35;;;;;;;8.10;5.97;;;8.80;99.90;;;;;;6203776;23;20197;-84
2023/04/09 08:12:01;;;;;;;16.57;6.40;;;8.80;99.90;;;;;;6204854;23;20197;-85
2023/04/09 08:14:27;;;;;;;11.00;6.67;;;8.80;99.90;;;;;;6205053;23;20470;-85
2023/04/09 08:16:52;;;;;;;10.03;5.97;;;8.80;99.90;;;;;;6203417;23;20512;-84
2023/04/09 08:19:19;;;;;;;12.90;6.90;;;8.80;99.90;;;;;;6202840;23;20190;-85
2023/04/09 08:21:47;;;;;;;8.97;7.07;;;8.80;99.90;;;;;;6203565;23;20870;-85
2023/04/09 08:24:13;;;;;;;13.60;6.90;;;8.80;99.90;;;;;;6203113;23;20190;-88
2023/04/09 08:26:41;;;;;;;12.33;6.87;;;8.80;99.90;;;;;;6225499;23;20198;-84
2023/04/09 08:29:07;;;;;;;11.43;7.10;;;8.80;99.90;;;;;;6224635;23;20157;-86
2023/04/09 08:31:35;;;;;;;9.63;6.67;;;8.90;99.90;;;;;;6224598;23;20637;-84
2023/04/09 08:34:01;;;;;;;13.57;5.90;;;8.90;99.90;;;;;;6201254;23;20281;-84
2023/04/09 08:36:31;;;;;;;11.87;7.10;;;8.80;99.90;;;;;;6200003;23;20561;-87
2023/04/09 08:38:59;;;;;;;10.87;6.23;;;8.80;99.90;;;;;;6201550;23;20624;-84
2023/04/09 08:41:29;;;;;;;14.13;7.20;;;8.70;99.90;;;;;;6201621;23;20158;-84
2023/04/09 08:43:57;;;;;;;8.93;6.17;;;8.70;99.90;;;;;;6227088;23;20147;-84
2023/04/09 08:46:23;;;;;;;10.87;6.03;;;8.70;99.90;;;;;;6200762;23;20245;-84
2023/04/09 08:48:50;;;;;;;11.27;7.50;;;8.70;99.90;;;;;;6203309;23;20558;-85
2023/04/09 08:51:17;;;;;;;14.20;7.03;;;8.70;99.90;;;;;;6201896;23;20198;-83
2023/04/09 08:53:56;;;;;;;8.07;6.90;;;8.70;99.90;;;;;;6202526;23;20190;-85
2023/04/09 08:56:22;;;;;;;11.57;7.10;;;8.70;99.90;;;;;;6200345;23;20498;-84
2023/04/09 08:58:49;;;;;;;16.47;8.90;;;8.70;99.90;;;;;;6204079;23;20163;-84
2023/04/09 09:01:18;;;;;;;11.53;6.70;;;8.70;99.90;;;;;;6201681;23;20601;-84
2023/04/09 09:04:07;;;;;;;10.53;6.30;;;8.90;99.90;;;;;;6226065;23;20216;-83
2023/04/09 09:06:39;;;;;;;8.30;7.43;;;8.80;99.90;;;;;;6194142;23;20190;-84
2023/04/09 09:09:13;;;;;;;9.80;8.90;;;8.80;99.90;;;;;;6193910;23;20190;-84
2023/04/09 09:11:41;;;;;;;13.67;8.83;;;8.90;99.90;;;;;;6202767;23;20190;-85
2023/04/09 09:14:09;;;;;;;9.80;7.63;;;8.90;99.90;;;;;;6201142;23;20186;-85
2023/04/09 09:17:07;;;;;;;14.00;8.53;;;8.90;99.90;;;;;;6200150;23;20154;-85
2023/04/09 09:19:33;;;;;;;7.50;5.10;;;8.80;99.90;;;;;;6181092;23;20161;-87
2023/04/09 09:22:04;;;;;;;15.47;6.50;;;8.80;99.90;;;;;;6201868;23;20201;-83
2023/04/09 09:24:34;;;;;;;6.53;5.90;;;8.90;99.90;;;;;;6201392;23;20209;-85
2023/04/09 09:27:01;;;;;;;12.43;7.97;;;8.90;99.90;;;;;;6200833;23;20228;-83
2023/04/09 09:29:27;;;;;;;8.47;5.17;;;8.90;99.90;;;;;;6225175;23;20186;-83
2023/04/09 09:31:55;;;;;;;10.17;6.57;;;8.90;99.90;;;;;;6201726;23;20601;-83
2023/04/09 09:34:22;;;;;;;18.40;7.47;;;9.10;99.90;;;;;;6201940;23;20605;-83
2023/04/09 09:36:48;;;;;;;9.67;5.20;;;9.10;99.90;;;;;;6198033;23;20205;-84
2023/04/09 09:39:16;;;;;;;9.03;6.80;;;9.00;99.90;;;;;;6201540;23;20193;-85
2023/04/09 09:41:42;;;;;;;12.80;7.53;;;9.00;99.90;;;;;;6201710;23;20202;-88
2023/04/09 09:44:10;;;;;;;10.87;7.30;;;9.00;99.90;;;;;;6224537;23;20194;-86
2023/04/09 09:46:41;;;;;;;10.63;6.97;;;9.00;99.90;;;;;;6198783;23;20241;-86
2023/04/09 09:49:08;;;;;;;10.13;6.73;;;9.00;99.90;;;;;;6203095;23;20236;-88
2023/04/09 09:51:38;;;;;;;10.70;6.10;;;9.10;99.90;;;;;;6199048;23;20185;-86
2023/04/09 09:54:07;;;;;;;10.83;5.73;;;9.10;99.90;;;;;;6225697;23;20194;-85
2023/04/09 09:56:38;;;;;;;10.63;5.77;;;9.30;99.90;;;;;;6199641;23;20685;-85
2023/04/09 09:59:21;;;;;;;8.37;5.70;;;9.20;99.90;;;;;;6225233;23;20187;-86
2023/04/09 10:01:50;;;;;;;6.87;4.63;;;9.20;99.90;;;;;;6201892;23;20177;-82
2023/04/09 10:04:17;;;;;;;12.87;6.63;;;9.20;99.90;;;;;;6225504;23;20233;-83
2023/04/09 10:06:44;;;;;;;7.77;6.23;;;9.20;99.90;;;;;;6223224;23;20193;-86
2023/04/09 10:09:11;;;;;;;7.93;6.70;;;9.10;99.90;;;;;;6200260;23;20193;-85
2023/04/09 10:11:41;;;;;;;9.10;5.80;;;9.20;99.90;;;;;;6201512;23;20629;-84
2023/04/09 10:14:07;;;;;;;15.67;7.07;;;9.20;99.90;;;;;;6203699;23;20244;-83
2023/04/09 10:16:34;;;;;;;13.10;6.73;;;9.10;99.90;;;;;;6200157;23;20154;-83
2023/04/09 10:19:00;;;;;;;18.40;6.60;;;9.20;99.90;;;;;;6202014;23;20158;-84
2023/04/09 10:21:47;;;;;;;13.27;7.83;;;9.30;99.90;;;;;;6173708;23;20283;-87
2023/04/09 10:24:15;;;;;;;17.97;8.07;;;9.30;99.90;;;;;;6223547;23;20259;-86
2023/04/09 10:26:43;;;;;;;16.50;8.90;;;9.50;99.90;;;;;;6198424;23;20228;-83
2023/04/09 10:29:12;;;;;;;12.90;8.23;;;9.60;99.90;;;;;;6200513;23;20240;-83
2023/04/09 10:32:08;;;;;;;18.67;8.00;;;9.60;99.90;;;;;;6200475;23;20394;-85
2023/04/09 10:34:42;;;;;;;10.40;5.63;;;9.60;99.90;;;;;;6185568;23;20170;-87
2023/04/09 10:37:14;;;;;;;9.60;8.30;;;9.50;99.90;;;;;;6224878;23;20178;-86
2023/04/09 10:39:43;;;;;;;14.37;8.30;;;9.50;99.90;;;;;;6223563;23;20590;-87
2023/04/09 10:42:35;;;;;;;11.83;6.90;;;9.60;99.90;;;;;;6223815;23;20751;-87
2023/04/09 10:45:11;;;;;;;17.43;6.23;;;9.70;99.90;;;;;;6212039;23;20579;-84
2023/04/09 10:47:39;;;;;;;11.10;6.53;;;9.50;99.90;;;;;;6224399;23;20620;-88
2023/04/09 10:50:39;;;;;;;14.37;7.13;;;9.70;99.90;;;;;;6201231;23;20186;-83
2023/04/09 10:53:05;;;;;;;8.67;6.00;;;9.70;99.90;;;;;;6198258;23;20190;-83
2023/04/09 10:55:39;;;;;;;14.80;7.10;;;9.80;99.90;;;;;;6197677;23;20188;-84
2023/04/09 10:58:07;;;;;;;8.80;7.00;;;9.80;99.90;;;;;;6199558;23;20202;-83
2023/04/09 11:00:37;;;;;;;10.27;6.30;;;9.80;99.90;;;;;;6227103;23;20268;-84
2023/04/09 11:03:21;;;;;;;7.93;7.17;;;9.80;99.90;;;;;;6227403;23;20633;-85
2023/04/09 11:06:16;;;;;;;21.60;8.47;;;9.90;99.90;;;;;;6203608;23;20696;-83
2023/04/09 11:08:43;;;;;;;14.27;7.50;;;10.00;99.90;;;;;;6200074;23;20193;-82
2023/04/09 11:11:10;;;;;;;6.87;4.67;;;10.20;99.90;;;;;;6226414;23;20197;-85
2023/04/09 11:13:36;;;;;;;9.27;7.30;;;10.40;99.90;;;;;;6202026;23;20155;-85
2023/04/09 11:16:05;;;;;;;16.20;7.63;;;10.30;99.90;;;;;;6200844;23;20455;-83
2023/04/09 11:18:33;;;;;;;9.27;6.17;;;10.50;99.90;;;;;;6177605;23;20645;-84
2023/04/09 11:21:01;;;;;;;12.87;7.70;;;10.40;99.90;;;;;;6201917;23;20244;-84
2023/04/09 11:23:28;;;;;;;13.20;7.73;;;10.40;99.90;;;;;;6202942;23;20206;-84
2023/04/09 11:25:54;;;;;;;15.57;9.87;;;10.40;99.90;;;;;;6224967;23;20528;-84
2023/04/09 11:28:23;;;;;;;8.77;6.40;;;10.40;99.90;;;;;;6203233;23;20156;-84
2023/04/09 11:30:52;;;;;;;15.37;7.70;;;10.50;99.90;;;;;;6201870;23;20641;-84
2023/04/09 11:33:18;;;;;;;12.37;7.70;;;10.60;99.90;;;;;;6227183;23;20297;-84
2023/04/09 11:35:44;;;;;;;15.00;7.50;;;10.60;99.90;;;;;;6175282;23;20190;-86
2023/04/09 11:38:11;;;;;;;12.77;8.67;;;10.80;99.90;;;;;;6203654;23;20205;-85
2023/04/09 11:40:46;;;;;;;13.87;7.97;;;10.90;99.90;;;;;;6201261;23;20648;-87
2023/04/09 11:43:13;;;;;;;9.17;7.37;;;10.80;99.90;;;;;;6204703;23;20201;-84
2023/04/09 11:45:42;;;;;;;12.77;7.20;;;11.00;99.90;;;;;;6200788;23;20244;-82
2023/04/09 11:48:09;;;;;;;9.57;7.97;;;11.30;99.90;;;;;;6202928;23;20205;-84
2023/04/09 11:50:36;;;;;;;10.90;7.20;;;11.50;99.90;;;;;;6201716;23;20551;-82
2023/04/09 11:53:18;;;;;;;12.20;7.93;;;11.90;99.90;;;;;;6203085;23;20190;-82
2023/04/09 11:55:46;;;;;;;14.03;9.40;;;11.90;99.90;;;;;;6226454;23;20172;-83
2023/04/09 11:58:12;;;;;;;11.03;6.97;;;11.90;99.90;;;;;;6201830;23;20217;-84
2023/04/09 12:00:40;;;;;;;12.20;8.10;;;12.10;99.90;;;;;;6226418;23;20221;-84
2023/04/09 12:03:06;;;;;;;14.07;7.80;;;11.70;99.90;;;;;;6227207;23;20247;-83
2023/04/09 12:05:33;;;;;;;11.93;7.57;;;11.90;99.90;;;;;;6200323;23;20194;-85
2023/04/09 12:08:01;;;;;;;14.17;8.43;;;12.30;99.90;;;;;;6201791;23;20194;-84
2023/04/09 12:10:35;;;;;;;9.77;7.50;;;12.30;99.90;;;;;;6203016;23;20154;-85
2023/04/09 12:13:02;;;;;;;15.60;8.80;;;12.10;99.90;;;;;;6202607;23;20240;-86
2023/04/09 12:15:34;;;;;;;19.63;8.80;;;12.30;99.90;;;;;;6202114;23;20209;-85
2023/04/09 12:18:01;;;;;;;12.33;7.57;;;12.10;99.90;;;;;;6202942;23;20348;-83
2023/04/09 12:20:33;;;;;;;13.77;8.17;;;12.20;99.90;;;;;;6200768;23;20189;-84
2023/04/09 12:23:01;;;;;;;14.73;7.97;;;12.30;99.90;;;;;;6227034;23;20228;-86
2023/04/09 12:25:27;;;;;;;11.87;8.07;;;12.40;99.90;;;;;;6225723;23;20163;-83
2023/04/09 12:27:54;;;;;;;10.93;7.00;;;12.50;99.90;;;;;;6201845;23;20244;-85
2023/04/09 12:30:20;;;;;;;12.63;7.90;;;12.40;99.90;;;;;;6201391;23;20190;-84
2023/04/09 12:32:46;;;;;;;8.60;6.90;;;12.70;99.90;;;;;;6226195;23;20225;-84
2023/04/09 12:35:13;;;;;;;14.73;8.77;;;13.00;99.90;;;;;;6202266;23;20182;-87
2023/04/09 12:37:39;;;;;;;15.17;8.87;;;12.70;99.90;;;;;;6200398;23;20186;-85
2023/04/09 12:40:05;;;;;;;18.13;8.57;;;12.80;99.90;;;;;;6202341;23;20184;-86
2023/04/09 12:42:31;;;;;;;12.43;7.97;;;13.10;99.90;;;;;;6202745;23;20202;-87
2023/04/09 12:44:57;;;;;;;11.77;8.27;;;13.40;99.90;;;;;;6201585;23;20190;-83
2023/04/09 12:47:22;;;;;;;15.47;7.93;;;13.00;99.90;;;;;;6199495;23;20213;-88